sensor_id;sensor_type;location;lat;lon;timestamp;pressure;altitude;pressure_sealevel;temperature;humidity
56582;BME280;42463;52.214;21.238;2023-02-15T00:00:53;102115.37;;;4.87;74.45
56582;BME280;42463;52.214;21.238;2023-02-15T00:03:18;102120.52;;;4.93;74.21
56582;BME280;42463;52.214;21.238;2023-02-15T00:05:42;102120.48;;;4.95;73.92
56582;BME280;42463;52.214;21.238;2023-02-15T00:08:07;102123.31;;;4.98;74.13
56582;BME280;42463;52.214;21.238;2023-02-15T00:10:32;102123.91;;;5.06;74.26
56582;BME280;42463;52.214;21.238;2023-02-15T00:12:56;102123.48;;;5.12;73.97
56582;BME280;42463;52.214;21.238;2023-02-15T00:15:21;102122.04;;;5.17;73.81
56582;BME280;42463;52.214;21.238;2023-02-15T00:17:46;102126.80;;;5.25;73.81
56582;BME280;42463;52.214;21.238;2023-02-15T00:20:11;102122.48;;;5.32;73.63
56582;BME280;42463;52.214;21.238;2023-02-15T00:22:36;102117.42;;;5.39;73.38
56582;BME280;42463;52.214;21.238;2023-02-15T00:25:01;102118.27;;;5.38;72.91
56582;BME280;42463;52.214;21.238;2023-02-15T00:27:27;102118.23;;;5.38;72.93
56582;BME280;42463;52.214;21.238;2023-02-15T00:29:52;102117.83;;;5.43;73.14
56582;BME280;42463;52.214;21.238;2023-02-15T00:32:16;102115.54;;;5.49;72.99
56582;BME280;42463;52.214;21.238;2023-02-15T00:34:41;102111.19;;;5.49;72.56
56582;BME280;42463;52.214;21.238;2023-02-15T00:37:06;102108.09;;;5.51;72.36
56582;BME280;42463;52.214;21.238;2023-02-15T00:39:31;102104.52;;;5.51;72.30
56582;BME280;42463;52.214;21.238;2023-02-15T00:41:56;102107.55;;;5.54;72.51
56582;BME280;42463;52.214;21.238;2023-02-15T00:44:21;102107.88;;;5.56;72.35
56582;BME280;42463;52.214;21.238;2023-02-15T00:46:46;102106.00;;;5.59;72.35
56582;BME280;42463;52.214;21.238;2023-02-15T00:49:11;102102.33;;;5.63;72.48
56582;BME280;42463;52.214;21.238;2023-02-15T00:51:36;102102.67;;;5.66;72.16
56582;BME280;42463;52.214;21.238;2023-02-15T00:54:00;102099.23;;;5.68;72.01
56582;BME280;42463;52.214;21.238;2023-02-15T00:56:27;102091.25;;;5.69;72.04
56582;BME280;42463;52.214;21.238;2023-02-15T00:58:51;102093.04;;;5.72;71.87
56582;BME280;42463;52.214;21.238;2023-02-15T01:01:18;102087.20;;;5.74;71.88
56582;BME280;42463;52.214;21.238;2023-02-15T01:03:44;102088.95;;;5.74;71.58
56582;BME280;42463;52.214;21.238;2023-02-15T01:06:10;102082.20;;;5.75;71.69
56582;BME280;42463;52.214;21.238;2023-02-15T01:08:35;102083.67;;;5.74;71.34
56582;BME280;42463;52.214;21.238;2023-02-15T01:11:04;102082.73;;;5.72;71.31
56582;BME280;42463;52.214;21.238;2023-02-15T01:13:29;102080.61;;;5.72;71.37
56582;BME280;42463;52.214;21.238;2023-02-15T01:15:55;102081.10;;;5.74;71.70
56582;BME280;42463;52.214;21.238;2023-02-15T01:18:20;102085.32;;;5.73;71.72
56582;BME280;42463;52.214;21.238;2023-02-15T01:20:45;102081.71;;;5.73;71.34
56582;BME280;42463;52.214;21.238;2023-02-15T01:23:11;102082.31;;;5.74;71.49
56582;BME280;42463;52.214;21.238;2023-02-15T01:25:37;102080.13;;;5.78;71.54
56582;BME280;42463;52.214;21.238;2023-02-15T01:28:02;102078.80;;;5.80;71.43
56582;BME280;42463;52.214;21.238;2023-02-15T01:30:27;102081.50;;;5.83;71.43
56582;BME280;42463;52.214;21.238;2023-02-15T01:32:52;102077.48;;;5.84;71.25
56582;BME280;42463;52.214;21.238;2023-02-15T01:35:18;102079.59;;;5.82;71.13
56582;BME280;42463;52.214;21.238;2023-02-15T01:37:43;102078.09;;;5.80;70.94
56582;BME280;42463;52.214;21.238;2023-02-15T01:40:13;102075.66;;;5.77;71.13
56582;BME280;42463;52.214;21.238;2023-02-15T01:42:41;102077.79;;;5.79;71.25
56582;BME280;42463;52.214;21.238;2023-02-15T01:45:21;102075.36;;;5.80;71.07
56582;BME280;42463;52.214;21.238;2023-02-15T01:47:50;102075.05;;;5.81;71.22
56582;BME280;42463;52.214;21.238;2023-02-15T01:50:18;102079.23;;;5.79;70.97
56582;BME280;42463;52.214;21.238;2023-02-15T01:52:50;102079.98;;;5.76;71.16
56582;BME280;42463;52.214;21.238;2023-02-15T01:55:17;102079.53;;;5.77;71.47
56582;BME280;42463;52.214;21.238;2023-02-15T01:57:43;102077.30;;;5.77;71.09
56582;BME280;42463;52.214;21.238;2023-02-15T02:04:13;102074.71;;;5.73;71.00
56582;BME280;42463;52.214;21.238;2023-02-15T02:06:40;102066.20;;;5.70;70.87
56582;BME280;42463;52.214;21.238;2023-02-15T02:09:06;102067.27;;;5.64;70.83
56582;BME280;42463;52.214;21.238;2023-02-15T02:11:31;102067.20;;;5.63;71.36
56582;BME280;42463;52.214;21.238;2023-02-15T02:13:57;102062.68;;;5.65;71.28
56582;BME280;42463;52.214;21.238;2023-02-15T02:16:25;102061.45;;;5.67;71.03
56582;BME280;42463;52.214;21.238;2023-02-15T02:19:04;102060.23;;;5.67;70.92
56582;BME280;42463;52.214;21.238;2023-02-15T02:21:48;102062.11;;;5.71;71.32
56582;BME280;42463;52.214;21.238;2023-02-15T02:27:28;102057.57;;;5.71;70.72
56582;BME280;42463;52.214;21.238;2023-02-15T02:36:00;102046.04;;;5.51;70.81
56582;BME280;42463;52.214;21.238;2023-02-15T02:38:32;102044.71;;;5.40;71.19
56582;BME280;42463;52.214;21.238;2023-02-15T02:41:10;102048.20;;;5.41;71.58
56582;BME280;42463;52.214;21.238;2023-02-15T02:43:40;102049.11;;;5.46;71.57
56582;BME280;42463;52.214;21.238;2023-02-15T02:46:17;102045.61;;;5.50;71.41
56582;BME280;42463;52.214;21.238;2023-02-15T02:48:48;102047.02;;;5.55;71.63
56582;BME280;42463;52.214;21.238;2023-02-15T02:51:14;102042.77;;;5.56;71.24
56582;BME280;42463;52.214;21.238;2023-02-15T02:53:44;102041.09;;;5.52;71.36
56582;BME280;42463;52.214;21.238;2023-02-15T02:56:18;102039.49;;;5.53;71.37
56582;BME280;42463;52.214;21.238;2023-02-15T02:58:48;102037.19;;;5.56;71.47
56582;BME280;42463;52.214;21.238;2023-02-15T03:01:17;102033.56;;;5.57;71.33
56582;BME280;42463;52.214;21.238;2023-02-15T03:03:47;102035.18;;;5.60;71.54
56582;BME280;42463;52.214;21.238;2023-02-15T03:06:16;102033.96;;;5.62;71.21
56582;BME280;42463;52.214;21.238;2023-02-15T03:08:44;102031.89;;;5.58;71.03
56582;BME280;42463;52.214;21.238;2023-02-15T03:11:12;102029.27;;;5.53;71.23
56582;BME280;42463;52.214;21.238;2023-02-15T03:13:38;102034.43;;;5.55;71.16
56582;BME280;42463;52.214;21.238;2023-02-15T03:16:08;102031.39;;;5.56;71.10
56582;BME280;42463;52.214;21.238;2023-02-15T03:18:55;102033.79;;;5.56;71.37
56582;BME280;42463;52.214;21.238;2023-02-15T03:21:23;102031.27;;;5.54;71.22
56582;BME280;42463;52.214;21.238;2023-02-15T03:23:52;102032.61;;;5.55;71.29
56582;BME280;42463;52.214;21.238;2023-02-15T03:26:19;102031.06;;;5.56;71.25
56582;BME280;42463;52.214;21.238;2023-02-15T03:28:50;102030.91;;;5.57;71.36
56582;BME280;42463;52.214;21.238;2023-02-15T03:31:19;102028.80;;;5.60;71.28
56582;BME280;42463;52.214;21.238;2023-02-15T03:33:51;102032.04;;;5.63;71.24
56582;BME280;42463;52.214;21.238;2023-02-15T03:36:21;102032.85;;;5.62;71.01
56582;BME280;42463;52.214;21.238;2023-02-15T03:38:53;102033.98;;;5.55;71.14
56582;BME280;42463;52.214;21.238;2023-02-15T03:41:25;102036.52;;;5.49;70.90
56582;BME280;42463;52.214;21.238;2023-02-15T03:43:55;102032.05;;;5.41;71.22
56582;BME280;42463;52.214;21.238;2023-02-15T03:46:28;102030.17;;;5.37;71.28
56582;BME280;42463;52.214;21.238;2023-02-15T03:49:02;102029.02;;;5.40;71.62
56582;BME280;42463;52.214;21.238;2023-02-15T03:51:31;102028.37;;;5.43;71.33
56582;BME280;42463;52.214;21.238;2023-02-15T03:53:58;102027.05;;;5.41;71.49
56582;BME280;42463;52.214;21.238;2023-02-15T03:56:24;102026.23;;;5.34;71.31
56582;BME280;42463;52.214;21.238;2023-02-15T03:58:49;102022.05;;;5.26;71.65
56582;BME280;42463;52.214;21.238;2023-02-15T04:01:36;102018.96;;;5.26;71.83
56582;BME280;42463;52.214;21.238;2023-02-15T04:04:23;102019.33;;;5.26;71.70
56582;BME280;42463;52.214;21.238;2023-02-15T04:06:52;102016.72;;;5.24;71.82
56582;BME280;42463;52.214;21.238;2023-02-15T04:09:16;102013.78;;;5.22;71.93
56582;BME280;42463;52.214;21.238;2023-02-15T04:12:13;102013.29;;;5.24;72.07
56582;BME280;42463;52.214;21.238;2023-02-15T04:14:38;102015.91;;;5.25;71.76
56582;BME280;42463;52.214;21.238;2023-02-15T04:17:20;102014.64;;;5.25;71.91
56582;BME280;42463;52.214;21.238;2023-02-15T04:19:45;102011.91;;;5.24;72.03
56582;BME280;42463;52.214;21.238;2023-02-15T04:22:27;102006.05;;;5.22;71.83
56582;BME280;42463;52.214;21.238;2023-02-15T04:25:09;102008.38;;;5.25;72.27
56582;BME280;42463;52.214;21.238;2023-02-15T04:27:35;102006.26;;;5.29;72.34
56582;BME280;42463;52.214;21.238;2023-02-15T04:29:59;102008.81;;;5.33;72.28
56582;BME280;42463;52.214;21.238;2023-02-15T04:32:27;102009.19;;;5.36;72.05
56582;BME280;42463;52.214;21.238;2023-02-15T04:34:52;102008.91;;;5.38;72.20
56582;BME280;42463;52.214;21.238;2023-02-15T04:37:16;102007.09;;;5.39;71.93
56582;BME280;42463;52.214;21.238;2023-02-15T04:39:41;102008.12;;;5.36;71.84
56582;BME280;42463;52.214;21.238;2023-02-15T04:42:06;102008.47;;;5.38;72.06
56582;BME280;42463;52.214;21.238;2023-02-15T04:44:31;102008.48;;;5.41;71.95
56582;BME280;42463;52.214;21.238;2023-02-15T04:46:55;102006.34;;;5.43;72.05
56582;BME280;42463;52.214;21.238;2023-02-15T04:49:20;102010.39;;;5.46;71.88
56582;BME280;42463;52.214;21.238;2023-02-15T04:51:45;102008.95;;;5.47;71.64
56582;BME280;42463;52.214;21.238;2023-02-15T04:54:10;102008.48;;;5.47;71.36
56582;BME280;42463;52.214;21.238;2023-02-15T04:56:35;102009.14;;;5.42;71.29
56582;BME280;42463;52.214;21.238;2023-02-15T04:59:01;102008.94;;;5.41;71.40
56582;BME280;42463;52.214;21.238;2023-02-15T05:01:25;102010.77;;;5.41;71.64
56582;BME280;42463;52.214;21.238;2023-02-15T05:03:50;102012.52;;;5.40;71.65
56582;BME280;42463;52.214;21.238;2023-02-15T05:06:15;102012.17;;;5.41;71.70
56582;BME280;42463;52.214;21.238;2023-02-15T05:08:39;102012.81;;;5.42;71.83
56582;BME280;42463;52.214;21.238;2023-02-15T05:11:04;102013.98;;;5.45;71.56
56582;BME280;42463;52.214;21.238;2023-02-15T05:13:36;102015.14;;;5.48;71.76
56582;BME280;42463;52.214;21.238;2023-02-15T05:16:00;102012.16;;;5.50;71.66
56582;BME280;42463;52.214;21.238;2023-02-15T05:18:25;102018.30;;;5.53;71.35
56582;BME280;42463;52.214;21.238;2023-02-15T05:20:50;102018.98;;;5.55;71.54
56582;BME280;42463;52.214;21.238;2023-02-15T05:23:15;102021.47;;;5.52;71.10
56582;BME280;42463;52.214;21.238;2023-02-15T05:25:40;102019.02;;;5.44;71.33
56582;BME280;42463;52.214;21.238;2023-02-15T05:28:23;102022.03;;;5.41;71.20
56582;BME280;42463;52.214;21.238;2023-02-15T05:30:50;102021.83;;;5.37;71.34
56582;BME280;42463;52.214;21.238;2023-02-15T05:33:15;102023.61;;;5.34;71.37
56582;BME280;42463;52.214;21.238;2023-02-15T05:35:42;102024.46;;;5.31;71.77
56582;BME280;42463;52.214;21.238;2023-02-15T05:38:10;102022.05;;;5.30;71.66
56582;BME280;42463;52.214;21.238;2023-02-15T05:40:35;102024.01;;;5.31;71.66
56582;BME280;42463;52.214;21.238;2023-02-15T05:43:00;102021.34;;;5.32;71.81
56582;BME280;42463;52.214;21.238;2023-02-15T05:45:26;102020.80;;;5.32;71.83
56582;BME280;42463;52.214;21.238;2023-02-15T05:47:51;102019.37;;;5.30;71.88
56582;BME280;42463;52.214;21.238;2023-02-15T05:50:16;102018.84;;;5.33;71.84
56582;BME280;42463;52.214;21.238;2023-02-15T05:52:41;102018.64;;;5.36;71.79
56582;BME280;42463;52.214;21.238;2023-02-15T05:55:07;102020.42;;;5.36;71.51
56582;BME280;42463;52.214;21.238;2023-02-15T05:57:31;102022.32;;;5.39;71.72
56582;BME280;42463;52.214;21.238;2023-02-15T05:59:56;102026.85;;;5.40;71.61
56582;BME280;42463;52.214;21.238;2023-02-15T06:02:21;102031.44;;;5.42;71.68
56582;BME280;42463;52.214;21.238;2023-02-15T06:04:46;102031.92;;;5.44;71.41
56582;BME280;42463;52.214;21.238;2023-02-15T06:07:10;102029.22;;;5.42;71.28
56582;BME280;42463;52.214;21.238;2023-02-15T06:09:35;102035.00;;;5.39;71.28
56582;BME280;42463;52.214;21.238;2023-02-15T06:12:00;102032.96;;;5.41;71.66
56582;BME280;42463;52.214;21.238;2023-02-15T06:14:24;102038.70;;;5.43;71.43
56582;BME280;42463;52.214;21.238;2023-02-15T06:16:49;102036.48;;;5.42;71.50
56582;BME280;42463;52.214;21.238;2023-02-15T06:19:14;102033.25;;;5.43;71.63
56582;BME280;42463;52.214;21.238;2023-02-15T06:21:41;102032.48;;;5.45;71.31
56582;BME280;42463;52.214;21.238;2023-02-15T06:24:09;102035.64;;;5.40;70.92
56582;BME280;42463;52.214;21.238;2023-02-15T06:26:33;102036.29;;;5.35;70.98
56582;BME280;42463;52.214;21.238;2023-02-15T06:28:58;102042.05;;;5.28;70.83
56582;BME280;42463;52.214;21.238;2023-02-15T06:31:23;102041.20;;;5.19;71.06
56582;BME280;42463;52.214;21.238;2023-02-15T06:33:47;102044.00;;;5.14;71.52
56582;BME280;42463;52.214;21.238;2023-02-15T06:36:12;102043.94;;;5.18;71.67
56582;BME280;42463;52.214;21.238;2023-02-15T06:38:40;102044.35;;;5.21;71.59
56582;BME280;42463;52.214;21.238;2023-02-15T06:41:05;102043.73;;;5.25;71.49
56582;BME280;42463;52.214;21.238;2023-02-15T06:43:29;102042.55;;;5.26;71.36
56582;BME280;42463;52.214;21.238;2023-02-15T06:45:57;102041.46;;;5.26;71.47
56582;BME280;42463;52.214;21.238;2023-02-15T06:48:22;102041.61;;;5.24;71.16
56582;BME280;42463;52.214;21.238;2023-02-15T06:50:47;102036.78;;;5.21;71.23
56582;BME280;42463;52.214;21.238;2023-02-15T06:53:12;102033.91;;;5.20;71.31
56582;BME280;42463;52.214;21.238;2023-02-15T06:55:37;102031.23;;;5.19;71.28
56582;BME280;42463;52.214;21.238;2023-02-15T06:58:04;102031.46;;;5.24;71.35
56582;BME280;42463;52.214;21.238;2023-02-15T07:00:28;102028.51;;;5.28;71.51
56582;BME280;42463;52.214;21.238;2023-02-15T07:02:56;102028.64;;;5.31;71.34
56582;BME280;42463;52.214;21.238;2023-02-15T07:05:21;102029.77;;;5.36;71.12
56582;BME280;42463;52.214;21.238;2023-02-15T07:07:50;102024.55;;;5.42;71.18
56582;BME280;42463;52.214;21.238;2023-02-15T07:10:15;102027.40;;;5.47;71.26
56582;BME280;42463;52.214;21.238;2023-02-15T07:12:39;102033.13;;;5.54;70.98
56582;BME280;42463;52.214;21.238;2023-02-15T07:15:08;102033.09;;;5.54;70.65
56582;BME280;42463;52.214;21.238;2023-02-15T07:17:33;102034.48;;;5.54;70.64
56582;BME280;42463;52.214;21.238;2023-02-15T07:19:58;102030.41;;;5.49;70.22
56582;BME280;42463;52.214;21.238;2023-02-15T07:22:23;102029.25;;;5.42;70.27
56582;BME280;42463;52.214;21.238;2023-02-15T07:24:48;102030.77;;;5.40;70.79
56582;BME280;42463;52.214;21.238;2023-02-15T07:27:13;102028.45;;;5.38;70.63
56582;BME280;42463;52.214;21.238;2023-02-15T07:29:38;102031.60;;;5.35;70.69
56582;BME280;42463;52.214;21.238;2023-02-15T07:32:06;102033.31;;;5.31;70.90
56582;BME280;42463;52.214;21.238;2023-02-15T07:34:30;102026.42;;;5.31;71.01
56582;BME280;42463;52.214;21.238;2023-02-15T07:36:55;102028.54;;;5.35;71.03
56582;BME280;42463;52.214;21.238;2023-02-15T07:39:20;102029.88;;;5.37;70.81
56582;BME280;42463;52.214;21.238;2023-02-15T07:41:53;102031.39;;;5.36;70.92
56582;BME280;42463;52.214;21.238;2023-02-15T07:44:18;102029.08;;;5.36;71.04
56582;BME280;42463;52.214;21.238;2023-02-15T07:46:46;102029.11;;;5.36;71.04
56582;BME280;42463;52.214;21.238;2023-02-15T07:49:11;102023.09;;;5.35;70.91
56582;BME280;42463;52.214;21.238;2023-02-15T07:51:35;102022.19;;;5.34;70.90
56582;BME280;42463;52.214;21.238;2023-02-15T07:54:00;102022.52;;;5.35;71.04
56582;BME280;42463;52.214;21.238;2023-02-15T07:56:25;102017.23;;;5.36;71.06
56582;BME280;42463;52.214;21.238;2023-02-15T07:58:50;102015.65;;;5.36;70.68
56582;BME280;42463;52.214;21.238;2023-02-15T08:01:19;102011.31;;;5.32;70.24
56582;BME280;42463;52.214;21.238;2023-02-15T08:03:45;102011.00;;;5.28;70.90
56582;BME280;42463;52.214;21.238;2023-02-15T08:06:11;102011.30;;;5.32;70.90
56582;BME280;42463;52.214;21.238;2023-02-15T08:08:36;102009.42;;;5.28;70.68
56582;BME280;42463;52.214;21.238;2023-02-15T08:11:02;102012.41;;;5.26;70.84
56582;BME280;42463;52.214;21.238;2023-02-15T08:13:44;102006.40;;;5.25;70.76
56582;BME280;42463;52.214;21.238;2023-02-15T08:16:17;102005.10;;;5.22;70.78
56582;BME280;42463;52.214;21.238;2023-02-15T08:18:42;102008.70;;;5.22;70.80
56582;BME280;42463;52.214;21.238;2023-02-15T08:21:06;102004.64;;;5.18;70.77
56582;BME280;42463;52.214;21.238;2023-02-15T08:23:32;102002.59;;;5.18;71.17
56582;BME280;42463;52.214;21.238;2023-02-15T08:26:00;102000.96;;;5.21;71.21
56582;BME280;42463;52.214;21.238;2023-02-15T08:28:26;102002.67;;;5.20;71.14
56582;BME280;42463;52.214;21.238;2023-02-15T08:30:51;102002.17;;;5.18;71.15
56582;BME280;42463;52.214;21.238;2023-02-15T08:33:15;102000.30;;;5.14;71.37
56582;BME280;42463;52.214;21.238;2023-02-15T08:35:41;102004.70;;;5.10;71.33
56582;BME280;42463;52.214;21.238;2023-02-15T08:38:05;102001.89;;;5.08;71.47
56582;BME280;42463;52.214;21.238;2023-02-15T08:40:30;101993.27;;;5.08;71.48
56582;BME280;42463;52.214;21.238;2023-02-15T08:42:55;101989.37;;;5.05;71.60
56582;BME280;42463;52.214;21.238;2023-02-15T08:45:20;101995.23;;;5.04;71.31
56582;BME280;42463;52.214;21.238;2023-02-15T08:47:44;101991.95;;;5.01;71.52
56582;BME280;42463;52.214;21.238;2023-02-15T08:50:10;101992.45;;;5.01;71.86
56582;BME280;42463;52.214;21.238;2023-02-15T08:52:34;101992.52;;;5.01;71.75
56582;BME280;42463;52.214;21.238;2023-02-15T08:54:59;101992.57;;;5.03;71.76
56582;BME280;42463;52.214;21.238;2023-02-15T08:57:25;101988.77;;;5.08;71.83
56582;BME280;42463;52.214;21.238;2023-02-15T08:59:50;101985.71;;;5.08;71.63
56582;BME280;42463;52.214;21.238;2023-02-15T09:02:14;101985.10;;;5.04;71.76
56582;BME280;42463;52.214;21.238;2023-02-15T09:04:39;101981.02;;;5.07;71.79
56582;BME280;42463;52.214;21.238;2023-02-15T09:07:03;101981.77;;;5.08;71.67
56582;BME280;42463;52.214;21.238;2023-02-15T09:09:29;101985.24;;;5.03;71.37
56582;BME280;42463;52.214;21.238;2023-02-15T09:11:54;101981.89;;;5.01;71.55
56582;BME280;42463;52.214;21.238;2023-02-15T09:14:20;101978.12;;;4.98;71.74
56582;BME280;42463;52.214;21.238;2023-02-15T09:16:47;101977.41;;;4.95;71.79
56582;BME280;42463;52.214;21.238;2023-02-15T09:19:14;101974.77;;;4.93;71.66
56582;BME280;42463;52.214;21.238;2023-02-15T09:21:40;101977.64;;;4.90;71.57
56582;BME280;42463;52.214;21.238;2023-02-15T09:24:07;101978.06;;;4.88;71.79
56582;BME280;42463;52.214;21.238;2023-02-15T09:26:33;101974.69;;;4.80;71.65
56582;BME280;42463;52.214;21.238;2023-02-15T09:29:00;101975.98;;;4.72;71.84
56582;BME280;42463;52.214;21.238;2023-02-15T09:31:28;101972.90;;;4.71;72.07
56582;BME280;42463;52.214;21.238;2023-02-15T09:33:53;101975.07;;;4.72;72.14
56582;BME280;42463;52.214;21.238;2023-02-15T09:36:21;101976.96;;;4.76;72.16
56582;BME280;42463;52.214;21.238;2023-02-15T09:38:47;101977.69;;;4.84;72.37
56582;BME280;42463;52.214;21.238;2023-02-15T09:41:30;101977.98;;;4.90;72.35
56582;BME280;42463;52.214;21.238;2023-02-15T09:44:01;101977.95;;;4.94;71.55
56582;BME280;42463;52.214;21.238;2023-02-15T09:46:47;101975.49;;;4.90;71.39
56582;BME280;42463;52.214;21.238;2023-02-15T09:49:25;101971.17;;;4.87;71.68
56582;BME280;42463;52.214;21.238;2023-02-15T09:52:10;101970.66;;;4.93;71.70
56582;BME280;42463;52.214;21.238;2023-02-15T09:54:57;101971.25;;;5.00;71.73
56582;BME280;42463;52.214;21.238;2023-02-15T09:57:34;101969.63;;;5.05;71.55
56582;BME280;42463;52.214;21.238;2023-02-15T10:00:07;101969.68;;;5.07;71.29
56582;BME280;42463;52.214;21.238;2023-02-15T10:02:51;101969.19;;;5.10;70.92
56582;BME280;42463;52.214;21.238;2023-02-15T10:05:28;101965.27;;;5.08;70.83
56582;BME280;42463;52.214;21.238;2023-02-15T10:10:51;101965.91;;;5.07;70.49
56582;BME280;42463;52.214;21.238;2023-02-15T10:13:29;101963.42;;;5.07;70.46
56582;BME280;42463;52.214;21.238;2023-02-15T10:16:10;101961.43;;;5.04;70.09
56582;BME280;42463;52.214;21.238;2023-02-15T10:18:51;101955.52;;;4.91;70.26
56582;BME280;42463;52.214;21.238;2023-02-15T10:21:27;101949.83;;;4.78;70.52
56582;BME280;42463;52.214;21.238;2023-02-15T10:24:19;101944.05;;;4.77;71.00
56582;BME280;42463;52.214;21.238;2023-02-15T10:26:49;101945.17;;;4.86;71.49
56582;BME280;42463;52.214;21.238;2023-02-15T10:29:25;101945.63;;;4.87;71.02
56582;BME280;42463;52.214;21.238;2023-02-15T10:31:59;101945.72;;;4.84;71.10
56582;BME280;42463;52.214;21.238;2023-02-15T10:34:35;101943.85;;;4.84;71.01
56582;BME280;42463;52.214;21.238;2023-02-15T10:37:20;101944.06;;;4.81;70.85
56582;BME280;42463;52.214;21.238;2023-02-15T10:39:56;101940.84;;;4.77;70.70
56582;BME280;42463;52.214;21.238;2023-02-15T10:42:34;101941.77;;;4.76;70.96
56582;BME280;42463;52.214;21.238;2023-02-15T10:45:22;101933.49;;;4.69;70.59
56582;BME280;42463;52.214;21.238;2023-02-15T10:48:00;101933.83;;;4.65;71.31
56582;BME280;42463;52.214;21.238;2023-02-15T10:53:26;101927.17;;;4.60;71.43
56582;BME280;42463;52.214;21.238;2023-02-15T10:56:07;101925.11;;;4.66;71.57
56582;BME280;42463;52.214;21.238;2023-02-15T10:58:47;101920.70;;;4.71;71.53
56582;BME280;42463;52.214;21.238;2023-02-15T11:01:21;101920.33;;;4.73;71.22
56582;BME280;42463;52.214;21.238;2023-02-15T11:04:08;101913.94;;;4.69;70.83
56582;BME280;42463;52.214;21.238;2023-02-15T11:06:37;101912.77;;;4.69;71.10
56582;BME280;42463;52.214;21.238;2023-02-15T11:09:08;101913.50;;;4.70;71.13
56582;BME280;42463;52.214;21.238;2023-02-15T11:11:38;101913.14;;;4.69;71.00
56582;BME280;42463;52.214;21.238;2023-02-15T11:14:13;101907.78;;;4.65;71.13
56582;BME280;42463;52.214;21.238;2023-02-15T11:16:43;101907.70;;;4.59;71.14
56582;BME280;42463;52.214;21.238;2023-02-15T11:19:13;101910.20;;;4.49;71.36
56582;BME280;42463;52.214;21.238;2023-02-15T11:21:45;101906.13;;;4.47;71.58
56582;BME280;42463;52.214;21.238;2023-02-15T11:24:16;101900.36;;;4.46;71.61
56582;BME280;42463;52.214;21.238;2023-02-15T11:26:46;101902.81;;;4.40;71.82
56582;BME280;42463;52.214;21.238;2023-02-15T11:29:23;101900.86;;;4.36;72.05
56582;BME280;42463;52.214;21.238;2023-02-15T11:31:55;101901.77;;;4.42;72.31
56582;BME280;42463;52.214;21.238;2023-02-15T11:34:26;101897.17;;;4.50;72.23
56582;BME280;42463;52.214;21.238;2023-02-15T11:36:53;101897.32;;;4.58;72.38
56582;BME280;42463;52.214;21.238;2023-02-15T11:39:23;101894.95;;;4.60;71.99
56582;BME280;42463;52.214;21.238;2023-02-15T11:41:54;101893.03;;;4.57;71.88
56582;BME280;42463;52.214;21.238;2023-02-15T11:44:23;101893.48;;;4.56;72.13
56582;BME280;42463;52.214;21.238;2023-02-15T11:46:50;101895.45;;;4.61;72.38
56582;BME280;42463;52.214;21.238;2023-02-15T11:49:29;101889.96;;;4.63;72.22
56582;BME280;42463;52.214;21.238;2023-02-15T11:51:55;101891.04;;;4.67;72.14
56582;BME280;42463;52.214;21.238;2023-02-15T11:54:28;101885.08;;;4.68;71.93
56582;BME280;42463;52.214;21.238;2023-02-15T11:56:54;101884.88;;;4.69;72.02
56582;BME280;42463;52.214;21.238;2023-02-15T11:59:24;101881.46;;;4.75;71.93
56582;BME280;42463;52.214;21.238;2023-02-15T12:01:51;101885.53;;;4.79;71.80
56582;BME280;42463;52.214;21.238;2023-02-15T12:04:22;101883.80;;;4.77;71.34
56582;BME280;42463;52.214;21.238;2023-02-15T12:06:59;101880.14;;;4.76;71.49
56582;BME280;42463;52.214;21.238;2023-02-15T12:09:32;101883.54;;;4.69;71.14
56582;BME280;42463;52.214;21.238;2023-02-15T12:12:22;101881.48;;;4.68;71.63
56582;BME280;42463;52.214;21.238;2023-02-15T12:14:55;101881.96;;;4.69;71.64
56582;BME280;42463;52.214;21.238;2023-02-15T12:17:22;101881.36;;;4.72;71.88
56582;BME280;42463;52.214;21.238;2023-02-15T12:19:48;101875.16;;;4.74;71.30
56582;BME280;42463;52.214;21.238;2023-02-15T12:22:22;101874.20;;;4.69;71.27
56582;BME280;42463;52.214;21.238;2023-02-15T12:24:52;101867.35;;;4.71;71.75
56582;BME280;42463;52.214;21.238;2023-02-15T12:27:19;101863.38;;;4.72;71.53
56582;BME280;42463;52.214;21.238;2023-02-15T12:29:48;101862.30;;;4.75;71.44
56582;BME280;42463;52.214;21.238;2023-02-15T12:32:18;101856.25;;;4.77;71.68
56582;BME280;42463;52.214;21.238;2023-02-15T12:34:44;101851.13;;;4.77;71.36
56582;BME280;42463;52.214;21.238;2023-02-15T12:37:17;101848.84;;;4.74;71.46
56582;BME280;42463;52.214;21.238;2023-02-15T12:39:53;101844.75;;;4.74;71.31
56582;BME280;42463;52.214;21.238;2023-02-15T12:42:18;101841.05;;;4.75;71.49
56582;BME280;42463;52.214;21.238;2023-02-15T12:44:55;101839.34;;;4.70;71.50
56582;BME280;42463;52.214;21.238;2023-02-15T12:47:24;101837.80;;;4.74;71.95
56582;BME280;42463;52.214;21.238;2023-02-15T12:50:11;101838.86;;;4.78;71.85
56582;BME280;42463;52.214;21.238;2023-02-15T12:52:39;101832.42;;;4.77;71.53
56582;BME280;42463;52.214;21.238;2023-02-15T12:55:20;101833.77;;;4.73;71.59
56582;BME280;42463;52.214;21.238;2023-02-15T12:57:45;101829.21;;;4.68;71.93
56582;BME280;42463;52.214;21.238;2023-02-15T13:00:27;101828.20;;;4.69;71.94
56582;BME280;42463;52.214;21.238;2023-02-15T13:02:56;101827.14;;;4.65;71.84
56582;BME280;42463;52.214;21.238;2023-02-15T13:05:25;101818.88;;;4.58;71.68
56582;BME280;42463;52.214;21.238;2023-02-15T13:07:56;101812.87;;;4.57;72.15
56582;BME280;42463;52.214;21.238;2023-02-15T13:10:28;101818.97;;;4.63;72.30
56582;BME280;42463;52.214;21.238;2023-02-15T13:12:53;101816.99;;;4.69;72.44
56582;BME280;42463;52.214;21.238;2023-02-15T13:15:28;101816.48;;;4.75;72.26
56582;BME280;42463;52.214;21.238;2023-02-15T13:17:56;101815.75;;;4.71;71.79